Terminal Aerodrome Forecast
Issued by NWS

Home | Current Version | Previous Version | Graphics & Text | Print | Product List | Glossary On
Versions: 1 2 3 4 5 6 7 8 9 10 11 12 13
000
FTUS45 KGGW 180500
TAFSDY
TAF
KSDY 180528Z 1806/1906 12011G17KT 6SM -RA SCT040 OVC060
     FM180900 10007KT P6SM VCSH SCT070 BKN120
     FM181500 15014G22KT P6SM SCT080 BKN150
     FM182100 17009KT 6SM -RA SCT040 OVC060
     FM190100 28013G19KT P6SM FEW080 SCT250
      AMD LTD TO CLD VIS AND WIND=

USA.gov is the U.S. government's official web portal to all federal, state and local government web resources and services.